China Weather Suzhou today hourly
Home / China / Suzhou / Suzhou Hour By Hour Weather - 24hr View

48 Hour View

Time Temp. Wind Dir. Humidity Wind Spd. Precip.
2020-07-21 20:00pm 26°C NW 27% 8km/h 0%
2020-07-21 21:00pm 24°C NW 29% 5km/h 0%
2020-07-21 22:00pm 22°C NW 32% 7km/h 0%
2020-07-21 23:00pm 20°C NW 34% 4km/h 0%
2020-07-22 00:00pm 20°C NW 34% 11km/h 0%
2020-07-22 01:00pm 21°C NW 35% 7km/h 0%
2020-07-22 02:00pm 22°C NW 35% 7km/h 0%
2020-07-22 03:00pm 21°C NW 36% 8km/h 0%
2020-07-22 04:00pm 21°C NW 37% 11km/h 0%
2020-07-22 05:00pm 21°C NW 37% 3km/h 0%
2020-07-22 06:00pm 20°C NW 38% 5km/h 0%
2020-07-22 07:00pm 20°C NW 38% 9km/h 0%
2020-07-22 08:00pm 20°C NW 38% 9km/h 0%
2020-07-22 09:00pm 23°C NW 36% 9km/h 0%
2020-07-22 10:00pm 25°C NW 34% 15km/h 0%
2020-07-22 11:00pm 27°C NW 31% 24km/h 0%
2020-07-22 12:00pm 28°C NW 32% 24km/h 0%
2020-07-22 13:00pm 28°C NW 32% 13km/h 43%
2020-07-22 14:00pm 29°C NW 32% 15km/h 47%
2020-07-22 15:00pm 28°C NW 33% 6km/h 51%
2020-07-22 16:00pm 28°C NW 34% 11km/h 43%
2020-07-22 17:00pm 27°C NW 35% 2km/h 51%
2020-07-22 18:00pm 25°C NW 39% 24km/h 51%
2020-07-22 19:00pm 25°C NW 40% 24km/h 10%

More Local Information

Hourly Weather Nearby

Bookmark and Share

Become A Member